Time;durP1;ratioP1;P1;durP2;ratioP2;P2;SDS_P1;SDS_P2;PMS_P1;PMS_P2;Temp;Humidity;BMP_temperature;BMP_pressure;BME280_temperature;BME280_humidity;BME280_pressure;Samples;Min_cycle;Max_cycle;Signal;HPM_P1;HPM_P2
2021/06/22 02:46:13;;;;;;;4.68;2.83;;;18.10;99.90;;;;;;5870618;23;93725;-81
2021/06/22 02:52:14;;;;;;;6.03;2.88;;;18.00;99.90;;;;;;4899835;28;86758;-82
2021/06/22 02:54:40;;;;;;;3.65;2.30;;;18.10;99.90;;;;;;4918445;28;87868;-83
2021/06/22 02:57:07;;;;;;;4.70;2.92;;;18.10;99.90;;;;;;4918581;28;86568;-82
2021/06/22 02:59:34;;;;;;;4.75;2.40;;;18.10;99.90;;;;;;4900450;28;86811;-81
2021/06/22 03:02:00;;;;;;;3.67;2.10;;;18.10;99.90;;;;;;4892208;28;88255;-83
2021/06/22 03:04:25;;;;;;;3.30;2.50;;;18.10;99.90;;;;;;4894113;28;87820;-82
2021/06/22 03:06:51;;;;;;;3.47;2.40;;;18.10;99.90;;;;;;4902267;28;86090;-81
2021/06/22 03:09:17;;;;;;;5.63;2.88;;;18.10;99.90;;;;;;4902198;28;86239;-82
2021/06/22 03:11:43;;;;;;;3.35;2.40;;;18.10;99.90;;;;;;4897077;28;86744;-82
2021/06/22 03:17:30;;;;;;;5.55;2.80;;;18.20;99.90;;;;;;4897920;28;86759;-82
2021/06/22 03:19:56;;;;;;;4.18;2.53;;;18.10;99.90;;;;;;4901700;28;86026;-82
2021/06/22 03:25:44;;;;;;;6.53;2.70;;;18.00;99.90;;;;;;4916752;28;86884;-80
2021/06/22 03:28:09;;;;;;;3.03;2.58;;;17.90;99.90;;;;;;4918634;28;87794;-81
2021/06/22 03:30:35;;;;;;;6.00;2.95;;;17.90;99.90;;;;;;4919025;28;86842;-80
2021/06/22 03:33:01;;;;;;;5.40;3.17;;;17.90;99.90;;;;;;4918380;28;88051;-80
2021/06/22 03:35:28;;;;;;;4.75;3.13;;;17.90;99.90;;;;;;4919629;28;86912;-81
2021/06/22 03:37:55;;;;;;;5.47;2.95;;;18.00;99.90;;;;;;4918741;28;86696;-80
2021/06/22 03:40:21;;;;;;;5.03;3.00;;;18.00;99.90;;;;;;4920328;28;87004;-81
2021/06/22 03:46:10;;;;;;;3.90;2.95;;;18.10;99.90;;;;;;4916325;28;85874;-82
2021/06/22 03:48:36;;;;;;;6.22;3.03;;;18.10;99.90;;;;;;4900513;28;86367;-81
2021/06/22 03:51:02;;;;;;;5.43;3.50;;;18.20;99.90;;;;;;4900976;28;86974;-81
2021/06/22 03:53:28;;;;;;;4.10;2.92;;;18.20;99.90;;;;;;4901189;28;88286;-82
2021/06/22 03:55:54;;;;;;;3.25;2.83;;;18.20;99.90;;;;;;4901887;28;87042;-82
2021/06/22 03:58:20;;;;;;;6.20;2.83;;;18.30;99.90;;;;;;4903743;28;86774;-82
2021/06/22 04:00:46;;;;;;;4.88;3.00;;;18.40;99.90;;;;;;4902857;28;86404;-82
2021/06/22 04:03:15;;;;;;;4.50;2.80;;;18.40;99.90;;;;;;4902826;28;86741;-81
2021/06/22 04:05:41;;;;;;;4.53;2.75;;;18.40;99.90;;;;;;4901808;28;87489;-81
2021/06/22 04:08:07;;;;;;;3.88;2.97;;;18.50;99.90;;;;;;4898424;28;86297;-81
2021/06/22 04:10:33;;;;;;;4.18;3.40;;;18.60;99.90;;;;;;4902828;28;86008;-79
2021/06/22 04:12:59;;;;;;;4.63;3.20;;;18.60;99.90;;;;;;4901651;28;87282;-81
2021/06/22 04:15:26;;;;;;;4.30;3.30;;;18.60;99.90;;;;;;4894557;28;88519;-82
2021/06/22 04:17:51;;;;;;;3.80;3.35;;;18.60;99.90;;;;;;4897683;28;87822;-81
2021/06/22 04:21:02;;;;;;;5.43;3.50;;;18.60;99.90;;;;;;4899082;28;86637;-80
2021/06/22 04:23:28;;;;;;;5.40;4.45;;;18.60;99.90;;;;;;4895274;28;87922;-82
2021/06/22 04:25:54;;;;;;;5.32;3.78;;;18.60;99.90;;;;;;4901090;28;86870;-82
2021/06/22 04:28:19;;;;;;;5.20;3.50;;;18.60;99.90;;;;;;4900534;28;86091;-81
2021/06/22 04:30:45;;;;;;;4.07;3.30;;;18.50;99.90;;;;;;4902543;28;86301;-81
2021/06/22 04:33:12;;;;;;;5.85;3.72;;;18.50;99.90;;;;;;4900340;28;88032;-81
2021/06/22 04:42:22;;;;;;;6.50;3.55;;;18.60;99.90;;;;;;4877301;29;86326;-82
2021/06/22 04:44:48;;;;;;;5.60;3.55;;;18.70;99.90;;;;;;4878885;28;88297;-80
2021/06/22 04:47:14;;;;;;;3.72;3.30;;;18.70;99.90;;;;;;4878346;28;87345;-82
2021/06/22 04:49:40;;;;;;;6.65;3.70;;;18.80;99.90;;;;;;4880318;28;86836;-82
2021/06/22 04:52:05;;;;;;;6.88;4.28;;;18.80;99.90;;;;;;4881283;29;86812;-83
2021/06/22 04:54:31;;;;;;;5.25;3.60;;;18.90;99.90;;;;;;4880764;28;86832;-81
2021/06/22 04:56:59;;;;;;;6.78;4.03;;;19.00;99.90;;;;;;4880229;28;86832;-83
2021/06/22 04:59:24;;;;;;;7.18;4.20;;;19.00;99.90;;;;;;4878875;28;86695;-83
2021/06/22 05:01:50;;;;;;;5.15;3.88;;;19.10;99.90;;;;;;4876941;29;85925;-80
2021/06/22 05:07:39;;;;;;;3.40;3.08;;;19.30;99.90;;;;;;4874315;29;86691;-81
2021/06/22 05:10:06;;;;;;;7.25;3.65;;;19.40;99.90;;;;;;4875797;28;86980;-81
2021/06/22 05:12:32;;;;;;;6.57;3.45;;;19.50;99.90;;;;;;4877581;28;86610;-82
2021/06/22 05:14:58;;;;;;;5.53;3.55;;;19.50;99.90;;;;;;4874999;28;87586;-82
2021/06/22 05:20:46;;;;;;;6.32;3.80;;;19.70;99.90;;;;;;4875895;29;85994;-82
2021/06/22 05:26:33;;;;;;;4.95;3.22;;;20.00;99.90;;;;;;4879491;29;86376;-82
2021/06/22 05:32:21;;;;;;;10.40;3.90;;;20.40;99.90;;;;;;4882195;29;86349;-79
2021/06/22 05:34:47;;;;;;;5.40;3.70;;;20.60;99.90;;;;;;4884122;29;86931;-78
2021/06/22 05:41:10;;;;;;;5.70;4.55;;;21.30;99.90;;;;;;4878559;28;87043;-81
2021/06/22 05:43:36;;;;;;;6.72;5.05;;;21.60;99.90;;;;;;4887025;28;86483;-81
2021/06/22 05:46:01;;;;;;;6.07;3.97;;;21.40;99.90;;;;;;4885649;28;86752;-81
2021/06/22 05:48:27;;;;;;;5.05;4.65;;;21.70;99.90;;;;;;4878443;28;86957;-81
2021/06/22 05:50:53;;;;;;;6.78;4.90;;;21.80;99.90;;;;;;4878230;29;86876;-80
2021/06/22 05:53:19;;;;;;;5.05;4.60;;;;;;;;;;4879191;28;86833;-81
2021/06/22 05:55:45;;;;;;;5.85;5.00;;;21.10;99.90;;;;;;4878719;28;85518;-81
2021/06/22 05:58:10;;;;;;;8.15;5.35;;;21.30;99.90;;;;;;4876710;28;88330;-81
2021/06/22 06:00:36;;;;;;;5.95;3.63;;;21.30;99.90;;;;;;4876281;29;86871;-80
2021/06/22 06:03:02;;;;;;;7.13;5.10;;;21.40;99.90;;;;;;4877186;29;87245;-81
2021/06/22 06:05:28;;;;;;;4.78;3.88;;;21.20;99.90;;;;;;4879240;29;86744;-81
2021/06/22 06:07:54;;;;;;;6.13;4.78;;;21.10;99.90;;;;;;4888180;28;86645;-81
2021/06/22 06:10:53;;;;;;;5.85;4.88;;;20.90;99.90;;;;;;4894649;28;87856;-81
2021/06/22 06:13:19;;;;;;;6.20;4.78;;;;;;;;;;4878248;29;86798;-81
2021/06/22 06:15:45;;;;;;;5.50;4.80;;;21.30;99.90;;;;;;4878569;29;86323;-81
2021/06/22 06:18:11;;;;;;;8.18;5.57;;;;;;;;;;4876759;29;86946;-81
2021/06/22 06:20:37;;;;;;;5.30;4.70;;;;;;;;;;4878500;29;86135;-81
2021/06/22 06:23:03;;;;;;;5.50;4.90;;;21.90;99.90;;;;;;4878545;29;86530;-80
2021/06/22 06:25:28;;;;;;;5.05;4.30;;;21.90;99.90;;;;;;4879742;29;86322;-80
2021/06/22 06:27:57;;;;;;;5.30;4.32;;;22.30;99.90;;;;;;4881976;28;88022;-80
2021/06/22 06:30:28;;;;;;;4.95;4.45;;;22.40;99.90;;;;;;4879573;29;87278;-81
2021/06/22 06:32:54;;;;;;;4.90;4.50;;;22.60;99.90;;;;;;4881633;29;86711;-81
2021/06/22 06:35:20;;;;;;;5.80;4.80;;;22.70;99.90;;;;;;4880298;29;86803;-81
2021/06/22 06:37:46;;;;;;;5.75;4.35;;;22.70;99.90;;;;;;4880110;29;86674;-81
2021/06/22 06:40:13;;;;;;;4.78;4.30;;;22.80;99.90;;;;;;4877829;28;86860;-81
2021/06/22 06:42:39;;;;;;;4.20;3.80;;;22.90;99.90;;;;;;4878549;28;86750;-81
2021/06/22 06:45:07;;;;;;;4.43;3.92;;;22.80;99.90;;;;;;4878551;29;85918;-80
2021/06/22 06:47:32;;;;;;;5.18;4.07;;;22.80;99.90;;;;;;4879592;29;87330;-81
2021/06/22 06:49:58;;;;;;;4.18;3.78;;;22.80;99.90;;;;;;4882511;29;86712;-81
2021/06/22 06:52:24;;;;;;;4.85;4.13;;;22.70;99.90;;;;;;4881990;29;87570;-81
2021/06/22 06:54:50;;;;;;;5.32;4.00;;;22.80;99.90;;;;;;4884248;29;86699;-81
2021/06/22 06:57:15;;;;;;;7.65;4.50;;;23.00;99.90;;;;;;4887372;28;87372;-81
2021/06/22 06:59:41;;;;;;;5.30;4.35;;;23.40;99.90;;;;;;4899649;28;86989;-81
2021/06/22 07:02:07;;;;;;;6.18;3.97;;;23.40;99.90;;;;;;4902887;28;86310;-81
2021/06/22 07:04:33;;;;;;;5.90;4.32;;;23.70;99.90;;;;;;4902483;28;86716;-81
2021/06/22 07:06:59;;;;;;;4.40;4.10;;;24.00;99.90;;;;;;4902716;28;87592;-81
2021/06/22 07:09:25;;;;;;;4.22;3.75;;;24.10;99.90;;;;;;4903345;28;87849;-81
2021/06/22 07:11:51;;;;;;;4.60;4.20;;;24.10;99.30;;;;;;4901437;28;86066;-81
2021/06/22 07:14:17;;;;;;;4.40;4.00;;;24.10;98.50;;;;;;4901317;28;86803;-81
2021/06/22 07:16:44;;;;;;;5.13;4.40;;;24.00;98.70;;;;;;4898131;28;88793;-82
2021/06/22 07:19:10;;;;;;;5.10;4.60;;;24.00;98.80;;;;;;4898691;28;87202;-79
2021/06/22 07:21:36;;;;;;;8.40;4.93;;;23.90;99.00;;;;;;4897488;28;86252;-81
2021/06/22 07:24:01;;;;;;;6.70;5.20;;;24.00;99.70;;;;;;4896858;28;86615;-81
2021/06/22 07:26:27;;;;;;;4.75;4.35;;;24.20;97.20;;;;;;4894955;28;87429;-81
2021/06/22 07:28:53;;;;;;;5.22;4.22;;;24.50;96.60;;;;;;4900007;28;87229;-80
2021/06/22 07:31:19;;;;;;;4.40;4.10;;;24.70;95.90;;;;;;4904771;28;86042;-80
2021/06/22 07:33:44;;;;;;;4.60;4.20;;;24.90;95.40;;;;;;4905937;28;86127;-80
2021/06/22 07:36:10;;;;;;;4.50;4.10;;;24.90;95.20;;;;;;4904624;28;88326;-81
2021/06/22 07:38:36;;;;;;;5.97;4.72;;;25.00;94.70;;;;;;4901265;28;86332;-80
2021/06/22 07:41:03;;;;;;;5.20;4.25;;;25.20;93.80;;;;;;4894806;28;87739;-82
2021/06/22 07:43:29;;;;;;;5.57;4.30;;;25.40;92.80;;;;;;4884473;28;86678;-81
2021/06/22 07:45:54;;;;;;;4.63;4.18;;;25.60;92.90;;;;;;4885838;28;87276;-82
2021/06/22 07:48:20;;;;;;;4.53;4.07;;;25.60;92.50;;;;;;4894842;28;86708;-81
2021/06/22 07:50:46;;;;;;;6.85;4.57;;;25.60;92.20;;;;;;4905868;28;86534;-81
2021/06/22 07:53:12;;;;;;;4.43;4.03;;;25.40;92.40;;;;;;4905254;28;86348;-81
2021/06/22 07:55:38;;;;;;;4.97;4.50;;;25.20;92.90;;;;;;4903467;28;87375;-81
2021/06/22 07:58:04;;;;;;;4.93;4.53;;;25.20;93.20;;;;;;4903693;28;86221;-81
2021/06/22 08:03:14;;;;;;;5.60;5.10;;;25.10;93.80;;;;;;4899085;28;86713;-81
2021/06/22 08:05:40;;;;;;;6.38;4.68;;;25.40;93.80;;;;;;4898125;28;88014;-81
2021/06/22 08:08:08;;;;;;;5.28;4.78;;;25.60;93.50;;;;;;4901590;28;88378;-81
2021/06/22 08:10:35;;;;;;;5.97;5.22;;;25.80;92.60;;;;;;4898573;28;86620;-81
2021/06/22 08:13:01;;;;;;;6.88;5.07;;;25.80;92.20;;;;;;4901363;28;86337;-82
2021/06/22 08:15:28;;;;;;;5.47;4.97;;;25.90;92.00;;;;;;4901478;28;87305;-81
2021/06/22 08:17:54;;;;;;;5.50;4.72;;;26.10;91.20;;;;;;4902932;28;86781;-81
2021/06/22 08:20:21;;;;;;;6.45;4.97;;;26.20;91.20;;;;;;4899099;28;87050;-80
2021/06/22 08:22:52;;;;;;;5.00;4.50;;;26.20;90.60;;;;;;4902625;28;86111;-81
2021/06/22 08:25:19;;;;;;;5.15;4.75;;;26.40;90.80;;;;;;4901571;28;86956;-82
2021/06/22 08:27:46;;;;;;;6.20;4.93;;;26.60;90.80;;;;;;4901018;28;87294;-81
2021/06/22 08:30:12;;;;;;;4.80;4.40;;;26.80;89.20;;;;;;4901103;28;87650;-81
2021/06/22 08:32:37;;;;;;;5.47;4.97;;;27.10;89.40;;;;;;4900042;28;86748;-81
2021/06/22 08:35:04;;;;;;;4.82;4.43;;;27.20;86.60;;;;;;4897792;28;87418;-81
2021/06/22 08:37:29;;;;;;;4.45;4.15;;;26.80;85.60;;;;;;4900561;28;86739;-81
2021/06/22 08:39:55;;;;;;;8.20;4.90;;;27.00;86.50;;;;;;4901422;28;86719;-81
2021/06/22 08:42:23;;;;;;;6.20;4.65;;;27.30;86.70;;;;;;4885947;28;86704;-81
2021/06/22 08:44:50;;;;;;;5.15;4.78;;;27.40;84.80;;;;;;4899443;28;86834;-81
2021/06/22 08:47:24;;;;;;;5.40;5.00;;;27.50;82.90;;;;;;4900990;28;87909;-81
2021/06/22 08:49:55;;;;;;;4.50;4.20;;;27.40;82.40;;;;;;4904200;28;86256;-82
2021/06/22 08:52:24;;;;;;;4.63;4.32;;;27.60;82.60;;;;;;4901961;28;86801;-81
2021/06/22 08:54:51;;;;;;;4.68;4.25;;;27.60;79.60;;;;;;4914978;28;89086;-82
2021/06/22 08:57:17;;;;;;;4.70;4.30;;;27.60;81.30;;;;;;4901449;28;87955;-82
2021/06/22 08:59:43;;;;;;;5.18;4.60;;;27.90;80.00;;;;;;4900309;28;86664;-81
2021/06/22 09:02:09;;;;;;;4.80;4.30;;;28.10;78.50;;;;;;4900469;28;86721;-81
2021/06/22 09:04:35;;;;;;;5.88;4.53;;;27.50;78.00;;;;;;4897277;28;87207;-81
2021/06/22 09:07:01;;;;;;;4.65;4.35;;;27.10;79.70;;;;;;4897564;28;87992;-82
2021/06/22 09:09:42;;;;;;;5.38;4.90;;;26.80;80.60;;;;;;4898666;28;86631;-81
2021/06/22 09:12:10;;;;;;;6.45;4.68;;;26.60;80.80;;;;;;4900354;28;86150;-81
2021/06/22 09:14:41;;;;;;;5.25;4.72;;;26.30;82.40;;;;;;4900536;28;87197;-81
2021/06/22 09:17:07;;;;;;;8.30;5.43;;;26.10;82.80;;;;;;4898683;28;87411;-81
2021/06/22 09:19:35;;;;;;;7.25;5.10;;;26.10;83.30;;;;;;4900064;28;87680;-81
2021/06/22 09:22:15;;;;;;;5.78;5.28;;;25.90;83.50;;;;;;4899697;28;86748;-81
2021/06/22 09:25:08;;;;;;;5.43;4.60;;;25.70;84.20;;;;;;4882454;28;87263;-81
2021/06/22 09:27:54;;;;;;;5.93;5.10;;;25.40;85.20;;;;;;4881177;29;87126;-81
2021/06/22 09:30:38;;;;;;;7.05;5.25;;;25.20;86.20;;;;;;4881428;28;86849;-81
2021/06/22 09:33:27;;;;;;;5.63;5.20;;;25.30;86.30;;;;;;4892002;28;87226;-82
2021/06/22 09:36:10;;;;;;;5.78;5.20;;;25.50;85.60;;;;;;4898463;28;86741;-82
2021/06/22 09:38:40;;;;;;;5.40;4.90;;;26.00;84.70;;;;;;4898577;28;86252;-81
2021/06/22 09:41:06;;;;;;;;;;;26.40;84.70;;;;;;4898349;28;86647;-81
2021/06/22 09:43:50;;;;;;;5.97;5.47;;;26.60;82.20;;;;;;4882671;28;86728;-81
2021/06/22 09:46:18;;;;;;;7.72;5.40;;;25.90;82.50;;;;;;4880059;28;88043;-81
2021/06/22 09:52:26;;;;;;;6.05;5.45;;;25.30;84.30;;;;;;4877367;29;86322;-81
2021/06/22 09:58:33;;;;;;;6.25;5.10;;;24.20;88.00;;;;;;4887702;28;86268;-82
2021/06/22 10:00:59;;;;;;;6.55;5.20;;;24.00;89.80;;;;;;4880070;28;86629;-81
2021/06/22 10:03:37;;;;;;;6.60;5.78;;;23.90;89.90;;;;;;4880622;28;86401;-81
2021/06/22 10:06:07;;;;;;;6.75;5.00;;;23.80;90.10;;;;;;4880800;29;86107;-82
2021/06/22 10:08:52;;;;;;;7.30;5.88;;;23.60;90.20;;;;;;4878829;28;88346;-81
2021/06/22 10:11:38;;;;;;;7.75;6.35;;;23.40;90.70;;;;;;4879772;29;86715;-81
2021/06/22 10:14:08;;;;;;;8.75;5.63;;;23.30;90.80;;;;;;4876476;28;87266;-81
2021/06/22 10:16:34;;;;;;;5.13;4.67;;;23.00;90.70;;;;;;4889580;28;87167;-81
2021/06/22 10:19:01;;;;;;;7.90;5.90;;;22.90;91.40;;;;;;4896625;28;87669;-81
2021/06/22 10:21:29;;;;;;;9.32;5.80;;;22.80;91.30;;;;;;4897729;28;86917;-82
2021/06/22 10:23:56;;;;;;;7.05;6.07;;;22.90;91.50;;;;;;4897242;28;86057;-81
2021/06/22 10:26:28;;;;;;;5.88;5.32;;;22.90;91.10;;;;;;4895457;28;86748;-81
2021/06/22 10:28:55;;;;;;;7.50;5.40;;;22.80;91.30;;;;;;4898040;28;87688;-81
2021/06/22 10:31:21;;;;;;;7.22;4.95;;;22.90;91.10;;;;;;4898241;28;86752;-81
2021/06/22 10:33:47;;;;;;;5.28;4.72;;;22.60;91.30;;;;;;4913326;28;86679;-81
2021/06/22 10:36:24;;;;;;;5.40;4.55;;;22.60;91.50;;;;;;4898644;28;86445;-81
2021/06/22 10:42:13;;;;;;;4.43;2.78;;;22.60;90.90;;;;;;4895788;28;86824;-78
2021/06/22 10:44:44;;;;;;;5.95;4.85;;;22.50;90.40;;;;;;4899966;28;86283;-81
2021/06/22 10:47:22;;;;;;;7.13;4.50;;;22.50;90.50;;;;;;4899305;28;86687;-82
2021/06/22 10:50:23;;;;;;;4.53;4.10;;;22.50;90.10;;;;;;4899712;28;87217;-82
2021/06/22 10:52:51;;;;;;;3.90;3.60;;;22.50;90.20;;;;;;4897081;28;86689;-81
2021/06/22 10:55:20;;;;;;;4.50;4.10;;;22.50;89.40;;;;;;4899335;28;86027;-82
2021/06/22 10:58:07;;;;;;;4.75;4.10;;;22.50;89.10;;;;;;4900213;28;86199;-81
2021/06/22 11:00:51;;;;;;;6.10;3.95;;;22.60;88.40;;;;;;4898701;28;86752;-81
2021/06/22 11:03:21;;;;;;;4.00;3.60;;;22.60;88.60;;;;;;4894894;28;87150;-81
2021/06/22 11:05:48;;;;;;;5.47;3.53;;;22.80;87.60;;;;;;4893272;28;87851;-81
2021/06/22 11:08:17;;;;;;;4.63;4.22;;;23.00;86.50;;;;;;4880651;28;86447;-81
2021/06/22 11:10:54;;;;;;;3.72;3.42;;;23.30;86.30;;;;;;4881166;29;87551;-80
2021/06/22 11:13:33;;;;;;;3.50;3.30;;;23.90;84.70;;;;;;4885467;28;86436;-80
2021/06/22 11:16:09;;;;;;;3.53;3.33;;;24.90;81.00;;;;;;4883019;29;86886;-80
2021/06/22 11:18:56;;;;;;;4.07;3.78;;;25.50;77.40;;;;;;4871109;29;87003;-81
2021/06/22 11:24:58;;;;;;;3.92;3.63;;;27.00;72.60;;;;;;4885557;29;86103;-80
2021/06/22 11:27:24;;;;;;;4.00;3.70;;;28.00;70.20;;;;;;4889754;28;86641;-80
2021/06/22 11:29:54;;;;;;;3.78;3.58;;;28.30;66.60;;;;;;4888109;28;86746;-81
2021/06/22 11:35:42;;;;;;;3.60;3.40;;;28.30;64.90;;;;;;4898881;28;88254;-81
2021/06/22 11:38:22;;;;;;;3.90;3.60;;;29.30;65.50;;;;;;4903680;28;86850;-80
2021/06/22 11:41:15;;;;;;;3.60;3.40;;;31.10;61.70;;;;;;4909833;28;86271;-81
2021/06/22 11:44:09;;;;;;;4.00;3.70;;;31.80;55.20;;;;;;4921689;28;91845;-80
2021/06/22 11:46:41;;;;;;;3.50;3.30;;;32.00;57.30;;;;;;4908197;28;87873;-80
2021/06/22 11:49:11;;;;;;;4.13;3.67;;;33.50;54.40;;;;;;4909051;28;86405;-80
2021/06/22 11:51:46;;;;;;;4.35;4.15;;;35.30;51.10;;;;;;4906812;28;85661;-81
2021/06/22 11:54:41;;;;;;;4.65;4.25;;;36.40;46.80;;;;;;4902529;28;87202;-81
2021/06/22 11:57:20;;;;;;;4.72;4.10;;;37.00;46.20;;;;;;4903365;28;86831;-80
2021/06/22 11:59:48;;;;;;;5.10;4.03;;;38.40;44.20;;;;;;4902077;28;87535;-81
2021/06/22 12:06:04;;;;;;;4.00;3.70;;;38.50;41.50;;;;;;4907822;28;86129;-80
2021/06/22 12:08:33;;;;;;;4.00;3.80;;;37.20;42.90;;;;;;4894329;28;86405;-78
2021/06/22 12:11:12;;;;;;;4.20;3.90;;;36.00;44.60;;;;;;4903308;28;86309;-80
2021/06/22 12:17:18;;;;;;;4.05;3.85;;;35.60;44.60;;;;;;4908641;28;87150;-80
2021/06/22 12:19:44;;;;;;;4.15;3.95;;;37.10;43.20;;;;;;4908119;28;86256;-81
2021/06/22 12:22:13;;;;;;;4.38;4.10;;;37.70;42.90;;;;;;4907461;28;86930;-81
2021/06/22 12:24:44;;;;;;;4.97;4.60;;;37.90;42.70;;;;;;4907610;28;86727;-80
2021/06/22 12:27:13;;;;;;;4.40;4.10;;;38.80;42.00;;;;;;4905236;28;88062;-81
2021/06/22 12:29:42;;;;;;;4.82;4.53;;;39.20;41.90;;;;;;4904383;28;88414;-81
2021/06/22 12:32:10;;;;;;;5.75;4.80;;;38.70;41.50;;;;;;4900922;28;86355;-80
2021/06/22 12:34:40;;;;;;;5.40;4.38;;;37.70;42.60;;;;;;4899231;28;86899;-80
2021/06/22 12:37:24;;;;;;;5.35;4.70;;;36.50;43.10;;;;;;4901434;28;87406;-79
2021/06/22 12:39:50;;;;;;;4.78;4.38;;;35.10;45.10;;;;;;4899383;28;86906;-80
2021/06/22 12:42:22;;;;;;;4.68;4.28;;;34.00;46.10;;;;;;4898625;28;86455;-80
2021/06/22 12:48:10;;;;;;;4.95;4.55;;;32.00;49.80;;;;;;4892153;28;86755;-81
2021/06/22 12:53:57;;;;;;;4.53;4.22;;;30.80;51.60;;;;;;4896234;28;86916;-79
2021/06/22 12:59:47;;;;;;;4.03;3.72;;;29.30;55.30;;;;;;4895042;28;86696;-79
2021/06/22 13:02:14;;;;;;;4.20;3.90;;;28.60;56.70;;;;;;4898388;28;86924;-78
2021/06/22 13:04:48;;;;;;;4.00;3.70;;;28.30;57.20;;;;;;4899321;28;86814;-81
2021/06/22 13:07:19;;;;;;;4.05;3.85;;;28.20;57.30;;;;;;4899046;28;86919;-79
2021/06/22 13:09:46;;;;;;;4.15;3.85;;;28.10;58.40;;;;;;4898953;28;86734;-78
2021/06/22 13:12:16;;;;;;;4.22;3.92;;;28.10;57.90;;;;;;4899242;28;87330;-79
2021/06/22 13:14:43;;;;;;;5.28;4.38;;;28.40;58.80;;;;;;4899409;28;85986;-79
2021/06/22 13:20:31;;;;;;;4.72;4.38;;;28.90;58.10;;;;;;4896258;28;87789;-81
2021/06/22 13:23:06;;;;;;;4.78;4.40;;;28.50;58.10;;;;;;4898221;28;86940;-81
2021/06/22 13:25:35;;;;;;;4.53;4.22;;;28.30;58.40;;;;;;4898674;28;86846;-81
2021/06/22 13:28:13;;;;;;;4.60;4.30;;;28.20;58.90;;;;;;4900021;28;86442;-81
2021/06/22 13:30:46;;;;;;;4.35;4.13;;;28.10;59.90;;;;;;4897956;28;86879;-81
2021/06/22 13:33:12;;;;;;;4.40;4.10;;;28.00;59.60;;;;;;4897722;28;86634;-80
2021/06/22 13:39:03;;;;;;;4.60;4.30;;;27.50;61.00;;;;;;4895735;28;85859;-81
2021/06/22 13:41:28;;;;;;;5.85;4.82;;;27.40;61.20;;;;;;4897667;28;88458;-81
2021/06/22 13:47:40;;;;;;;4.28;3.88;;;27.30;61.60;;;;;;4894944;28;87613;-81
2021/06/22 13:50:36;;;;;;;4.80;4.40;;;27.10;62.20;;;;;;4898449;28;86300;-81
2021/06/22 13:53:03;;;;;;;4.82;4.53;;;27.10;62.70;;;;;;4898279;28;86975;-81
2021/06/22 13:55:32;;;;;;;4.70;4.30;;;27.20;62.40;;;;;;4898711;28;86983;-81
2021/06/22 13:58:07;;;;;;;4.80;4.40;;;27.40;62.00;;;;;;4895664;28;86332;-81
2021/06/22 14:00:35;;;;;;;5.00;4.60;;;27.50;61.70;;;;;;4897410;28;86326;-81
2021/06/22 14:03:01;;;;;;;4.63;4.32;;;27.80;62.20;;;;;;4896260;28;87722;-81
2021/06/22 14:05:32;;;;;;;4.78;4.40;;;27.80;61.20;;;;;;4897871;28;86312;-81
2021/06/22 14:07:59;;;;;;;3.97;3.78;;;27.70;62.00;;;;;;4898738;28;86745;-80
2021/06/22 14:10:26;;;;;;;5.60;4.65;;;27.80;61.90;;;;;;4895580;28;86284;-81
2021/06/22 14:12:52;;;;;;;4.53;4.22;;;27.30;60.80;;;;;;4895983;28;88131;-81
2021/06/22 14:15:18;;;;;;;5.03;4.50;;;27.10;61.30;;;;;;4896505;28;88115;-81
2021/06/22 14:17:46;;;;;;;4.15;3.85;;;27.10;61.90;;;;;;4896811;28;86823;-81
2021/06/22 14:20:12;;;;;;;4.63;4.10;;;27.40;62.50;;;;;;4897328;28;86717;-81
2021/06/22 14:22:41;;;;;;;4.55;4.18;;;27.70;61.60;;;;;;4887394;28;86856;-75
2021/06/22 14:25:09;;;;;;;4.97;4.20;;;28.20;60.90;;;;;;4887059;28;86732;-76
2021/06/22 14:27:35;;;;;;;4.55;4.15;;;28.50;60.40;;;;;;4886937;28;86781;-75
2021/06/22 14:30:01;;;;;;;5.20;4.80;;;28.70;59.40;;;;;;4887464;28;86297;-75
2021/06/22 14:32:27;;;;;;;4.82;4.43;;;28.60;59.20;;;;;;4886851;28;87357;-75
2021/06/22 14:34:59;;;;;;;3.92;3.63;;;28.90;59.40;;;;;;4886850;28;86929;-75
2021/06/22 14:37:30;;;;;;;4.50;4.10;;;29.10;59.20;;;;;;4888304;28;87664;-75
2021/06/22 14:39:56;;;;;;;4.60;4.25;;;29.40;58.50;;;;;;4887056;28;86824;-75
2021/06/22 14:42:22;;;;;;;4.40;4.10;;;29.30;57.70;;;;;;4886696;28;87107;-75
2021/06/22 14:44:48;;;;;;;4.15;3.80;;;29.20;57.50;;;;;;4886768;28;86917;-76
2021/06/22 14:47:14;;;;;;;3.83;3.63;;;;;;;;;;4885837;28;86735;-76
2021/06/22 14:49:40;;;;;;;5.78;5.18;;;29.70;57.60;;;;;;4887201;28;86860;-75
2021/06/22 14:52:07;;;;;;;4.43;4.13;;;30.00;56.10;;;;;;4885373;28;90465;-76
2021/06/22 14:54:32;;;;;;;4.22;3.92;;;30.10;56.50;;;;;;4886970;28;87013;-75
2021/06/22 14:56:58;;;;;;;4.32;4.03;;;30.20;55.70;;;;;;4885639;28;86885;-76
2021/06/22 14:59:24;;;;;;;5.20;4.03;;;30.20;55.70;;;;;;4886574;28;86952;-76
2021/06/22 15:01:49;;;;;;;4.80;4.40;;;30.00;55.70;;;;;;4886141;28;87984;-75
2021/06/22 15:04:15;;;;;;;5.32;4.43;;;30.10;56.20;;;;;;4886347;28;87171;-75
2021/06/22 15:06:41;;;;;;;4.60;4.20;;;29.80;56.10;;;;;;4886709;28;86249;-75
2021/06/22 15:09:07;;;;;;;4.60;4.20;;;29.40;55.70;;;;;;4886605;28;86936;-76
2021/06/22 15:14:54;;;;;;;4.43;4.13;;;29.50;57.40;;;;;;4883605;28;86268;-75
2021/06/22 15:17:20;;;;;;;4.15;3.85;;;29.40;57.80;;;;;;4886435;28;86753;-75
2021/06/22 15:19:46;;;;;;;4.47;4.10;;;29.40;57.30;;;;;;4887155;28;85671;-75
2021/06/22 15:22:11;;;;;;;5.20;3.88;;;29.30;56.90;;;;;;4886101;28;88162;-75
2021/06/22 15:24:37;;;;;;;4.53;4.22;;;29.20;57.30;;;;;;4885973;28;87358;-75
2021/06/22 15:27:03;;;;;;;4.70;4.30;;;29.10;57.60;;;;;;4885786;28;87718;-76
2021/06/22 15:29:31;;;;;;;4.53;4.30;;;29.40;58.10;;;;;;4886297;28;86684;-75
2021/06/22 15:31:57;;;;;;;4.35;4.00;;;;;;;;;;4886049;28;86691;-75
2021/06/22 15:37:45;;;;;;;4.00;3.80;;;29.30;56.40;;;;;;4883372;28;86734;-75
2021/06/22 15:40:13;;;;;;;4.40;4.10;;;29.00;57.40;;;;;;4886104;28;86318;-74
2021/06/22 15:42:41;;;;;;;4.50;4.10;;;29.00;57.70;;;;;;4885841;28;87415;-74
2021/06/22 15:45:08;;;;;;;4.45;4.15;;;29.00;58.00;;;;;;4886361;28;86894;-74
2021/06/22 15:47:36;;;;;;;2.75;2.55;;;29.20;58.50;;;;;;4885480;28;86638;-75
2021/06/22 15:50:06;;;;;;;4.20;4.00;;;29.10;57.60;;;;;;4885966;28;86666;-76
2021/06/22 15:55:54;;;;;;;4.13;3.92;;;;;;;;;;4883092;28;86825;-75
2021/06/22 15:58:20;;;;;;;3.85;3.65;;;29.10;56.40;;;;;;4886523;28;86877;-75
2021/06/22 16:00:46;;;;;;;3.70;3.50;;;;;;;;;;4884245;28;86277;-74
2021/06/22 16:03:11;;;;;;;4.15;3.85;;;28.60;55.30;;;;;;4886121;28;88217;-75
2021/06/22 16:05:38;;;;;;;3.85;3.55;;;28.40;56.60;;;;;;4885907;28;86785;-75
2021/06/22 16:08:05;;;;;;;3.70;3.50;;;28.30;56.40;;;;;;4887648;28;86725;-76
2021/06/22 16:10:31;;;;;;;3.85;3.50;;;28.00;57.10;;;;;;4889824;28;86348;-75
2021/06/22 16:12:57;;;;;;;3.80;3.50;;;28.30;57.10;;;;;;4888967;28;87228;-76
2021/06/22 16:15:23;;;;;;;4.32;3.85;;;27.80;56.70;;;;;;4889128;28;87504;-76
2021/06/22 16:17:49;;;;;;;4.13;3.42;;;28.10;57.10;;;;;;4888530;28;87706;-76
2021/06/22 16:20:19;;;;;;;3.78;3.50;;;28.30;55.90;;;;;;4896127;28;87042;-84
2021/06/22 16:26:08;;;;;;;3.65;3.40;;;27.70;57.00;;;;;;4897483;28;86838;-83
2021/06/22 16:28:34;;;;;;;3.67;3.47;;;27.70;56.60;;;;;;4902934;28;86697;-83
2021/06/22 16:31:00;;;;;;;3.60;3.40;;;27.60;57.00;;;;;;4900971;28;86629;-83
2021/06/22 16:33:25;;;;;;;4.07;3.40;;;27.20;56.80;;;;;;4897467;28;86808;-85
2021/06/22 16:35:52;;;;;;;3.47;3.28;;;27.10;56.20;;;;;;4898727;28;87449;-85
2021/06/22 16:38:17;;;;;;;3.85;3.47;;;26.80;56.90;;;;;;4899347;28;86370;-84
2021/06/22 16:40:44;;;;;;;3.60;3.40;;;26.50;57.70;;;;;;4899552;28;86971;-80
2021/06/22 16:43:10;;;;;;;4.00;3.78;;;26.40;59.20;;;;;;4899782;28;87709;-85
2021/06/22 16:45:39;;;;;;;3.65;3.40;;;26.20;59.10;;;;;;4901620;28;88251;-82
2021/06/22 16:48:12;;;;;;;5.22;3.60;;;26.20;58.90;;;;;;4898648;28;86606;-84
2021/06/22 16:50:38;;;;;;;4.15;3.70;;;26.00;59.40;;;;;;4897556;28;86216;-84
2021/06/22 16:56:28;;;;;;;3.60;3.30;;;25.90;61.50;;;;;;4898840;28;86041;-83
2021/06/22 16:58:53;;;;;;;3.80;3.50;;;25.70;60.90;;;;;;4897913;28;86714;-83
2021/06/22 17:01:19;;;;;;;3.88;3.58;;;25.60;61.10;;;;;;4900417;28;85991;-83
2021/06/22 17:03:45;;;;;;;3.80;3.50;;;25.40;61.00;;;;;;4900802;28;87145;-81
2021/06/22 17:06:11;;;;;;;3.60;3.40;;;25.10;62.40;;;;;;4899498;28;87419;-83
2021/06/22 17:08:37;;;;;;;3.78;3.58;;;25.00;62.60;;;;;;4896238;28;87707;-84
2021/06/22 17:14:24;;;;;;;3.65;3.40;;;24.80;63.90;;;;;;4894982;28;86734;-83
2021/06/22 17:20:13;;;;;;;3.53;3.33;;;24.40;64.00;;;;;;4892635;28;86805;-83
2021/06/22 17:22:40;;;;;;;4.07;3.78;;;24.30;64.70;;;;;;4895127;28;86636;-82
2021/06/22 17:25:07;;;;;;;3.92;2.85;;;24.30;64.80;;;;;;4892713;28;86900;-81
2021/06/22 17:27:34;;;;;;;3.22;2.92;;;24.30;65.00;;;;;;4892573;28;87003;-83
2021/06/22 17:30:00;;;;;;;3.47;3.25;;;24.30;65.90;;;;;;4894845;28;86801;-84
2021/06/22 17:32:26;;;;;;;3.17;2.97;;;24.30;66.30;;;;;;4893450;28;86863;-80